page 5758 of 1010015 registered users

eBook PostsUsers

  1. 0purple6earth registered @ 2013-02-02 11:14:21, last login @ 2013-02-02 11:14:21
  2. 0barwealth82 registered @ 2013-02-02 11:14:56, last login @ 2013-02-02 11:14:56
  3. 0force03india registered @ 2013-02-02 11:15:04, last login @ 2013-02-02 11:15:04
  4. 0lookapple5 registered @ 2013-02-02 11:15:32, last login @ 2013-02-02 12:00:39
  5. 0desk9seat registered @ 2013-02-02 11:17:19, last login @ 2013-02-02 11:17:19
  6. 0quillrefund92 registered @ 2013-02-02 11:17:39, last login @ 2013-02-02 11:17:39
  7. 0selectlyre9 registered @ 2013-02-02 11:17:42, last login @ 2013-02-02 11:17:42
  8. 0patiocrayon19 registered @ 2013-02-02 11:18:15, last login @ 2013-02-02 11:18:15
  9. 0potatobeggar04 registered @ 2013-02-02 11:18:30, last login @ 2013-02-02 11:18:30
  10. 0frameclick84 registered @ 2013-02-02 11:19:22, last login @ 2013-02-02 11:19:22
  11. 0frown82swamp registered @ 2013-02-02 11:20:18, last login @ 2013-02-02 11:20:18
  12. 0townspark76 registered @ 2013-02-02 11:20:29, last login @ 2013-02-02 11:38:32
  13. 0korean17bath registered @ 2013-02-02 11:20:56, last login @ 2013-02-02 11:20:56
  14. 0orchid5foam registered @ 2013-02-02 11:21:04, last login @ 2013-02-02 11:21:04
  15. 0duckpastor3 registered @ 2013-02-02 11:22:24, last login @ 2013-02-02 11:58:44
  16. 0crime9path registered @ 2013-02-02 11:22:41, last login @ 2013-02-02 11:22:41
  17. 0caroljeep73 registered @ 2013-02-02 11:22:52, last login @ 2013-02-02 11:22:52
  18. 0pump6hope registered @ 2013-02-02 11:22:58, last login @ 2013-02-02 11:22:58
  19. 0open98tune registered @ 2013-02-02 11:23:08, last login @ 2013-02-02 11:23:08
  20. 0join71zone registered @ 2013-02-02 11:23:56, last login @ 2013-02-02 11:23:56
  21. 0soil05tramp registered @ 2013-02-02 11:25:03, last login @ 2013-02-02 11:25:03
  22. 0eggnogwind81 registered @ 2013-02-02 11:25:36, last login @ 2013-02-02 11:25:36
  23. 0deathbush31 registered @ 2013-02-02 11:26:44, last login @ 2013-02-02 11:26:44
  24. 0jumbo0coke registered @ 2013-02-02 11:27:03, last login @ 2013-02-02 11:27:03
  25. 0brianiraq6 registered @ 2013-02-02 11:27:24, last login @ 2013-02-02 11:27:24
  26. 0sleep1delete registered @ 2013-02-02 11:29:26, last login @ 2013-02-02 11:29:26
  27. 0zoneclover3 registered @ 2013-02-02 11:29:29, last login @ 2013-02-02 11:29:29
  28. 0cougar6brandy registered @ 2013-02-02 11:29:45, last login @ 2013-02-02 11:29:45
  29. 0coltindex43 registered @ 2013-02-02 11:31:31, last login @ 2013-02-02 11:31:31
  30. 0skirt3plain registered @ 2013-02-02 11:31:58, last login @ 2013-02-02 11:31:58
  31. 0bufferpeanut38 registered @ 2013-02-02 11:31:58, last login @ 2013-02-02 11:50:39
  32. 0barber87litter registered @ 2013-02-02 11:32:45, last login @ 2013-02-02 11:32:45
  33. 0delete4tenor registered @ 2013-02-02 11:34:52, last login @ 2013-02-02 11:34:52
  34. 0sweets6skiing registered @ 2013-02-02 11:34:58, last login @ 2013-02-02 11:34:58
  35. 0knightpyjama6 registered @ 2013-02-02 11:34:59, last login @ 2013-02-02 11:34:59
  36. 0scarf38sprout registered @ 2013-02-02 11:35:18, last login @ 2013-02-02 11:35:18
  37. 0ounceicicle26 registered @ 2013-02-02 11:35:47, last login @ 2013-02-02 11:35:47
  38. 0lreesw16 registered @ 2013-02-02 11:35:54, last login @ 2013-02-02 11:35:54
  39. 0debthouse88 registered @ 2013-02-02 11:35:55, last login @ 2013-02-02 11:35:55
  40. 0meal05snake registered @ 2013-02-02 11:36:43, last login @ 2013-02-02 11:36:43
  41. 0bread99linda registered @ 2013-02-02 11:36:58, last login @ 2013-02-02 11:36:58
  42. 0smilesingle3 registered @ 2013-02-02 11:37:27, last login @ 2013-02-02 11:37:27
  43. 0brass24kitty registered @ 2013-02-02 11:37:41, last login @ 2013-02-02 11:37:41
  44. 0clamtime04 registered @ 2013-02-02 11:38:36, last login @ 2013-02-02 11:38:36
  45. 0tightsvacuum78 registered @ 2013-02-02 11:38:55, last login @ 2013-02-02 11:38:55
  46. 0crown9chard registered @ 2013-02-02 11:39:29, last login @ 2013-02-02 11:39:29
  47. 0side6name registered @ 2013-02-02 11:40:00, last login @ 2013-02-02 11:40:00
  48. 0glovestory25 registered @ 2013-02-02 11:40:02, last login @ 2013-02-02 11:40:02
  49. 0colon46cattle registered @ 2013-02-02 11:41:09, last login @ 2013-02-02 11:41:09
  50. 0adultpastry4 registered @ 2013-02-02 11:41:19, last login @ 2013-02-02 11:41:19
  51. 0sparkjuice63 registered @ 2013-02-02 11:41:42, last login @ 2013-02-02 11:41:42
  52. 0advicedraw4 registered @ 2013-02-02 11:42:15, last login @ 2013-02-02 11:42:15
  53. 0cloth36shears registered @ 2013-02-02 11:43:43, last login @ 2013-02-02 11:43:43
  54. 0trunkcall2 registered @ 2013-02-02 11:43:46, last login @ 2013-02-02 11:43:46
  55. 0usha0706 registered @ 2013-02-02 11:43:52, last login @ 2013-02-02 11:43:52
  56. 0shovel10finger registered @ 2013-02-02 11:44:10, last login @ 2013-02-02 11:44:10
  57. 0layer6pilot registered @ 2013-02-02 11:46:32, last login @ 2013-02-02 11:46:32
  58. 0landpush81 registered @ 2013-02-02 11:47:08, last login @ 2013-02-02 11:47:08
  59. 0lumbermist9 registered @ 2013-02-02 11:47:18, last login @ 2013-02-02 11:47:18
  60. 0greendust6 registered @ 2013-02-02 11:47:20, last login @ 2013-02-02 11:47:20
  61. 0beech2blow registered @ 2013-02-02 11:47:52, last login @ 2013-02-02 11:47:52
  62. 0israelquill26 registered @ 2013-02-02 11:48:51, last login @ 2013-02-02 11:48:51
  63. 0chord4rod registered @ 2013-02-02 11:49:27, last login @ 2013-02-02 11:49:27
  64. 0banana45grease registered @ 2013-02-02 11:49:49, last login @ 2013-02-02 11:49:49
  65. 0sidewash2 registered @ 2013-02-02 11:50:13, last login @ 2013-02-02 11:50:13
  66. 0soccer94rake registered @ 2013-02-02 11:51:07, last login @ 2013-02-02 11:51:07
  67. 0jason12shelf registered @ 2013-02-02 11:51:12, last login @ 2013-02-02 11:51:12
  68. 0framefire14 registered @ 2013-02-02 11:51:40, last login @ 2013-02-02 11:51:40
  69. 0vase40lamb registered @ 2013-02-02 11:52:24, last login @ 2013-02-02 11:52:24
  70. 0beaverchard04 registered @ 2013-02-02 11:52:43, last login @ 2013-02-02 11:52:43
  71. 0walrus34dahlia registered @ 2013-02-02 11:54:14, last login @ 2013-02-02 11:54:14
  72. 0relishvision58 registered @ 2013-02-02 11:54:21, last login @ 2013-02-02 11:54:21
  73. 0templedrive5 registered @ 2013-02-02 11:54:40, last login @ 2013-02-02 11:54:40
  74. 0oval71brush registered @ 2013-02-02 11:55:40, last login @ 2013-02-02 11:55:40
  75. 0drill09reason registered @ 2013-02-02 11:55:54, last login @ 2013-02-02 11:55:54
  76. 0swim62leo registered @ 2013-02-02 11:56:16, last login @ 2013-02-02 11:56:16
  77. 0fcxnrrrtmim56 registered @ 2013-02-02 11:56:20, last login @ 2013-02-02 11:56:20
  78. 0stem4couch registered @ 2013-02-02 11:57:00, last login @ 2013-02-02 11:57:00
  79. 0snake69rabbi registered @ 2013-02-02 11:57:08, last login @ 2013-02-02 11:57:08
  80. 0pantry2rub registered @ 2013-02-02 11:57:18, last login @ 2013-02-02 11:57:18
  81. 0sharekidney1 registered @ 2013-02-02 11:59:05, last login @ 2013-02-02 11:59:05
  82. 0royalhyneman45 registered @ 2013-02-02 11:59:28, last login @ 2013-02-02 11:59:28
  83. 0cactussink05 registered @ 2013-02-02 12:00:25, last login @ 2013-02-02 12:00:25
  84. 0pyjamafuel67 registered @ 2013-02-02 12:00:51, last login @ 2013-02-02 12:00:51
  85. 0cutweeder0 registered @ 2013-02-02 12:01:22, last login @ 2013-02-02 12:01:22
  86. 0monkey14farmer registered @ 2013-02-02 12:01:36, last login @ 2013-02-02 12:01:36
  87. 0italy6asia registered @ 2013-02-02 12:03:08, last login @ 2013-02-02 12:03:08
  88. 0anklespring58 registered @ 2013-02-02 12:03:10, last login @ 2013-02-02 12:03:10
  89. 0liftnose80 registered @ 2013-02-02 12:03:25, last login @ 2013-02-02 12:27:46
  90. 0prose0goal registered @ 2013-02-02 12:04:09, last login @ 2013-02-02 12:04:09
  91. 0open3dream registered @ 2013-02-02 12:04:31, last login @ 2013-02-02 12:04:31
  92. 0parkband15 registered @ 2013-02-02 12:05:51, last login @ 2013-02-02 12:05:51
  93. 0cousinseat9 registered @ 2013-02-02 12:06:14, last login @ 2013-02-02 12:06:14
  94. 0dirtseeder81 registered @ 2013-02-02 12:06:59, last login @ 2013-02-02 12:06:59
  95. 0layer46start registered @ 2013-02-02 12:07:07, last login @ 2013-02-02 12:07:07
  96. 0jeff0grouse registered @ 2013-02-02 12:08:03, last login @ 2013-02-02 12:08:03
  97. 0metaldesert12 registered @ 2013-02-02 12:09:04, last login @ 2013-02-02 12:09:04
  98. 0margin7food registered @ 2013-02-02 12:09:10, last login @ 2013-02-02 12:09:10
  99. 0personlaugh39 registered @ 2013-02-02 12:10:06, last login @ 2013-02-02 12:41:08
  100. 0storegerman2 registered @ 2013-02-02 12:10:15, last login @ 2013-02-02 12:10:15
  101. 0answer56map registered @ 2013-02-02 12:11:23, last login @ 2013-02-02 12:11:23

More...

[5768] [5767] [5766] [5765] [5764] [5763] [5762] [5761] [5760] [5759] [5758] [5757] [5756] [5755] [5754] [5753] [5752] [5751] [5750] [5749] ...[1]
Back to Top